METAR Data
IDs: Format: Raw Decoded Include TAF

Data at: 0553 UTC 16 Dec 2018

METAR for:KSFO (San Francisco Intl, CA, US)
Text:KSFO 160456Z 17004KT 10SM FEW040 BKN055 BKN070 14/09 A3005 RMK AO2 SLP175 T01440094
Temperature: 14.4°C ( 58°F)
Dewpoint: 9.4°C ( 49°F) [RH = 72%]
Pressure (altimeter):30.05 inches Hg (1017.7 mb) [Sea level pressure: 1017.5 mb]
Winds:from the S (170 degrees) at 5 MPH (4 knots; 2.1 m/s)
Visibility:10 or more sm (16+ km)
Ceiling:5500 feet AGL
Clouds: few clouds at 4000 feet AGL, broken clouds at 5500 feet AGL, broken clouds at 7000 feet AGL
Text:KSFO 160356Z 13004KT 10SM FEW040 BKN070 BKN150 13/09 A3005 RMK AO2 SLP174 T01330094
Temperature: 13.3°C ( 56°F)
Dewpoint: 9.4°C ( 49°F) [RH = 77%]
Pressure (altimeter):30.05 inches Hg (1017.7 mb) [Sea level pressure: 1017.4 mb]
Winds:from the SE (130 degrees) at 5 MPH (4 knots; 2.1 m/s)
Visibility:10 or more sm (16+ km)
Ceiling:7000 feet AGL
Clouds: few clouds at 4000 feet AGL, broken clouds at 7000 feet AGL, broken clouds at 15000 feet AGL
Text:KSFO 160256Z 00000KT 10SM BKN065 BKN150 14/09 A3004 RMK AO2 SLP173 T01390094 53005
Temperature: 13.9°C ( 57°F)
Dewpoint: 9.4°C ( 49°F) [RH = 74%]
Pressure (altimeter):30.04 inches Hg (1017.4 mb) [Sea level pressure: 1017.3 mb]
Winds:calm
Visibility:10 or more sm (16+ km)
Ceiling:6500 feet AGL
Clouds: broken clouds at 6500 feet AGL, broken clouds at 15000 feet AGL
Text:KSFO 160156Z 22003KT 10SM FEW027 BKN150 13/10 A3003 RMK AO2 SLP168 T01330100
Temperature: 13.3°C ( 56°F)
Dewpoint: 10.0°C ( 50°F) [RH = 80%]
Pressure (altimeter):30.03 inches Hg (1017.0 mb) [Sea level pressure: 1016.8 mb]
Winds:from the SW (220 degrees) at 3 MPH (3 knots; 1.5 m/s)
Visibility:10 or more sm (16+ km)
Ceiling:15000 feet AGL
Clouds: few clouds at 2700 feet AGL, broken clouds at 15000 feet AGL
Text:KSFO 160056Z 04004KT 10SM FEW034 BKN150 BKN180 13/11 A3003 RMK AO2 SLP169 T01280106
Temperature: 12.8°C ( 55°F)
Dewpoint: 10.6°C ( 51°F) [RH = 86%]
Pressure (altimeter):30.03 inches Hg (1017.0 mb) [Sea level pressure: 1016.9 mb]
Winds:from the NE (40 degrees) at 5 MPH (4 knots; 2.1 m/s)
Visibility:10 or more sm (16+ km)
Ceiling:15000 feet AGL
Clouds: few clouds at 3400 feet AGL, broken clouds at 15000 feet AGL, broken clouds at 18000 feet AGL
Text:KSFO 152356Z VRB04KT 10SM FEW040 BKN150 BKN180 15/10 A3003 RMK AO2 SLP168 T01500100 10167 20128 55007
Temperature: 15.0°C ( 59°F)
Dewpoint: 10.0°C ( 50°F) [RH = 72%]
Pressure (altimeter):30.03 inches Hg (1017.0 mb) [Sea level pressure: 1016.8 mb]
Winds:variable direction winds at 5 MPH (4 knots; 2.1 m/s)
Visibility:10 or more sm (16+ km)
Ceiling:15000 feet AGL
Clouds: few clouds at 4000 feet AGL, broken clouds at 15000 feet AGL, broken clouds at 18000 feet AGL
Text:KSFO 152256Z 00000KT 10SM SCT040 BKN150 BKN180 16/10 A3002 RMK AO2 SLP165 T01610100
Temperature: 16.1°C ( 61°F)
Dewpoint: 10.0°C ( 50°F) [RH = 67%]
Pressure (altimeter):30.02 inches Hg (1016.7 mb) [Sea level pressure: 1016.5 mb]
Winds:calm
Visibility:10 or more sm (16+ km)
Ceiling:15000 feet AGL
Clouds: scattered clouds at 4000 feet AGL, broken clouds at 15000 feet AGL, broken clouds at 18000 feet AGL
Text:KSFO 152156Z 10005KT 10SM FEW033 SCT055 BKN140 14/10 A3002 RMK AO2 SLP165 T01440100
Temperature: 14.4°C ( 58°F)
Dewpoint: 10.0°C ( 50°F) [RH = 75%]
Pressure (altimeter):30.02 inches Hg (1016.7 mb) [Sea level pressure: 1016.5 mb]
Winds:from the E (100 degrees) at 6 MPH (5 knots; 2.6 m/s)
Visibility:10 or more sm (16+ km)
Ceiling:14000 feet AGL
Clouds: few clouds at 3300 feet AGL, scattered clouds at 5500 feet AGL, broken clouds at 14000 feet AGL
Text:KSFO 152056Z 09004KT 10SM FEW033 SCT060 BKN140 13/10 A3005 RMK AO2 SLP175 T01330100 58015
Temperature: 13.3°C ( 56°F)
Dewpoint: 10.0°C ( 50°F) [RH = 80%]
Pressure (altimeter):30.05 inches Hg (1017.7 mb) [Sea level pressure: 1017.5 mb]
Winds:from the E (90 degrees) at 5 MPH (4 knots; 2.1 m/s)
Visibility:10 or more sm (16+ km)
Ceiling:14000 feet AGL
Clouds: few clouds at 3300 feet AGL, scattered clouds at 6000 feet AGL, broken clouds at 14000 feet AGL
Text:KSFO 151956Z 09005KT 10SM SCT033 SCT070 BKN090 13/11 A3007 RMK AO2 SLP183 T01330106
Temperature: 13.3°C ( 56°F)
Dewpoint: 10.6°C ( 51°F) [RH = 84%]
Pressure (altimeter):30.07 inches Hg (1018.4 mb) [Sea level pressure: 1018.3 mb]
Winds:from the E (90 degrees) at 6 MPH (5 knots; 2.6 m/s)
Visibility:10 or more sm (16+ km)
Ceiling:9000 feet AGL
Clouds: scattered clouds at 3300 feet AGL, scattered clouds at 7000 feet AGL, broken clouds at 9000 feet AGL
Text:KSFO 151856Z 09008KT 10SM SCT044 SCT080 BKN090 13/10 A3010 RMK AO2 SLP192 T01330100
Temperature: 13.3°C ( 56°F)
Dewpoint: 10.0°C ( 50°F) [RH = 80%]
Pressure (altimeter):30.10 inches Hg (1019.4 mb) [Sea level pressure: 1019.2 mb]
Winds:from the E (90 degrees) at 9 MPH (8 knots; 4.1 m/s)
Visibility:10 or more sm (16+ km)
Ceiling:9000 feet AGL
Clouds: scattered clouds at 4400 feet AGL, scattered clouds at 8000 feet AGL, broken clouds at 9000 feet AGL
Text:KSFO 151756Z 09005KT 10SM SCT044 SCT075 BKN090 13/09 A3010 RMK AO2 SLP191 T01280089 10128 20111 53008
Temperature: 12.8°C ( 55°F)
Dewpoint: 8.9°C ( 48°F) [RH = 77%]
Pressure (altimeter):30.10 inches Hg (1019.4 mb) [Sea level pressure: 1019.1 mb]
Winds:from the E (90 degrees) at 6 MPH (5 knots; 2.6 m/s)
Visibility:10 or more sm (16+ km)
Ceiling:9000 feet AGL
Clouds: scattered clouds at 4400 feet AGL, scattered clouds at 7500 feet AGL, broken clouds at 9000 feet AGL